Kemal Ka — TCTM5 — position and weather

sailwx.info

Track history (hours):
 
Tides and Currents Weather Stations Pressure Air Temp Water Temp Dewpoint Dewpoint Depression Visibility Wind Speed Wind Dir Waves Ship Positions

Kemal Ka

Last reported at 2017-Sep-20 22:05 UTC. Time now 2017-Sep-23 04:09 UTC.
Position N 42°24' E 030°22'.

Length 138 m; draft 5 m.

Type: Tanker. MMSI: 271002668.

Date/timePositionNaut miles runAvg speedWind from/ knotsBaromVisibWave heightAir tempDewpointWater temp
2017-Sep-20 22:05N 42°24' E 030°22'110.1
2017-Sep-20 22:00N 42°24' E 030°23'510.3
2017-Sep-20 21:30N 42°24' E 030°30'510.6
2017-Sep-20 21:00N 42°23' E 030°37'510.5
2017-Sep-20 20:30N 42°23' E 030°44'510.5
2017-Sep-20 20:00N 42°23' E 030°52'510.5
2017-Sep-20 19:30N 42°22' E 030°59'510.7
2017-Sep-20 19:00N 42°22' E 031°06'511.0
2017-Sep-20 18:30N 42°22' E 031°13'610.9
2017-Sep-20 18:00N 42°21' E 031°21'611.2
2017-Sep-20 17:30N 42°21' E 031°28'611.1
2017-Sep-20 16:59N 42°21' E 031°36'611.2
2017-Sep-20 16:28N 42°20' E 031°44'711.3
2017-Sep-20 15:53N 42°20' E 031°53'411.3
2017-Sep-20 15:30N 42°20' E 031°59'611.1
2017-Sep-20 15:00N 42°19' E 032°06'1110.9
2017-Sep-20 14:00N 42°19' E 032°21'510.8
2017-Sep-20 13:30N 42°18' E 032°28'510.9
2017-Sep-20 13:00N 42°18' E 032°36'510.8
2017-Sep-20 12:30N 42°18' E 032°43'510.7
2017-Sep-20 12:00N 42°17' E 032°50'510.6
2017-Sep-20 11:30N 42°17' E 032°57'510.5
2017-Sep-20 11:00N 42°17' E 033°04'510.2
2017-Sep-20 10:30N 42°16' E 033°11'6010.1
2017-Sep-20 04:34N 42°13' E 034°32'110.3
2017-Sep-20 04:30N 42°12' E 034°33'4910.1
2017-Sep-19 23:38N 41°60' E 035°37'310.1
2017-Sep-19 23:20N 41°58' E 035°40'410.1
2017-Sep-19 22:59N 41°57' E 035°45'49 6.3
2017-Sep-19 15:08N 41°18' E 036°24'1 0.0
2017-Sep-18 00:46N 41°19' E 036°25'3 5.2
2017-Sep-18 00:16N 41°21' E 036°24'13 8.9
2017-Sep-17 22:52N 41°33' E 036°18'4 8.6
2017-Sep-17 22:24N 41°37' E 036°16'4 8.5
2017-Sep-17 21:59N 41°40' E 036°15'15 7.8
2017-Sep-17 20:01N 41°51' E 036°00'0 8.4
2017-Sep-17 20:00N 41°52' E 036°00'4 8.7
2017-Sep-17 19:29N 41°53' E 035°55'5 8.6
2017-Sep-17 18:55N 41°55' E 035°49'11 9.2
2017-Sep-17 17:45N 41°59' E 035°35'109 8.9
2017-Sep-17 05:30N 42°05' E 033°09'4 8.9
2017-Sep-17 05:00N 42°05' E 033°03'5 9.2
2017-Sep-17 04:30N 42°05' E 032°57'5 9.2
2017-Sep-17 04:00N 42°06' E 032°51'5 9.2
2017-Sep-17 03:26N 42°06' E 032°44'4 9.3
2017-Sep-17 03:00N 42°07' E 032°38'5 9.3
2017-Sep-17 02:30N 42°07' E 032°32'13 9.1
2017-Sep-17 01:05N 42°08' E 032°15'1 8.9
2017-Sep-17 01:00N 42°08' E 032°14'4 8.7
2017-Sep-17 00:30N 42°08' E 032°08'4 8.8
2017-Sep-17 00:00N 42°09' E 032°02'4 8.7
2017-Sep-16 23:30N 42°09' E 031°56'4 8.5
2017-Sep-16 23:00N 42°09' E 031°50'4 8.4
2017-Sep-16 22:30N 42°10' E 031°45'4 8.5
2017-Sep-16 22:00N 42°10' E 031°39'4 8.7
2017-Sep-16 21:30N 42°11' E 031°33'5 8.8
2017-Sep-16 21:00N 42°12' E 031°27'5 8.6
2017-Sep-16 20:25N 42°13' E 031°21'25 8.5
2017-Sep-16 17:31N 42°16' E 030°48'0 8.2
2017-Sep-16 17:30N 42°16' E 030°47'5 8.2
2017-Sep-16 16:54N 42°17' E 030°41'3 8.2
2017-Sep-16 16:30N 42°17' E 030°36'4 8.2
2017-Sep-16 16:00N 42°18' E 030°31'4 8.2
2017-Sep-16 15:30N 42°18' E 030°25'4 8.2
2017-Sep-16 15:00N 42°18' E 030°20'4 8.1
2017-Sep-16 14:30N 42°19' E 030°14'4 8.2
2017-Sep-16 14:00N 42°19' E 030°09'8 8.3
2017-Sep-16 13:02N 42°20' E 029°58'0 8.4
2017-Sep-16 13:00N 42°20' E 029°58'9 8.5
2017-Sep-16 11:57N 42°21' E 029°46'4 8.6
2017-Sep-16 11:29N 42°21' E 029°40'5 8.7
2017-Sep-16 10:57N 42°21' E 029°34'4 8.6
2017-Sep-16 10:30N 42°22' E 029°29'4 8.6
2017-Sep-16 10:00N 42°22' E 029°23'4 8.6
2017-Sep-16 09:30N 42°22' E 029°17'4 8.8
2017-Sep-16 09:00N 42°22' E 029°11'25 8.9
2017-Sep-16 06:10N 42°24' E 028°37'2 8.8
2017-Sep-16 05:58N 42°24' E 028°35'4 9.0
2017-Sep-16 05:30N 42°25' E 028°29'4 8.9
2017-Sep-16 05:00N 42°26' E 028°23'6 9.0
2017-Sep-16 04:24N 42°26' E 028°16'7 9.1
2017-Sep-16 03:36N 42°27' E 028°06'5 9.1
2017-Sep-16 03:05N 42°27' E 028°00'1 9.2
2017-Sep-16 02:59N 42°28' E 027°59'5 9.1
2017-Sep-16 02:28N 42°28' E 027°52'5 8.9
2017-Sep-16 01:56N 42°28' E 027°46'  
2017-Sep-12 10:42N 42°20' E 031°44'14 9.8
2017-Sep-12 09:18N 42°19' E 032°03'3 9.8
2017-Sep-12 09:00N 42°19' E 032°07'5 9.6
2017-Sep-12 08:30N 42°19' E 032°13'5 9.5
2017-Sep-12 08:00N 42°19' E 032°20'5 9.6
2017-Sep-12 07:30N 42°18' E 032°26'5 9.5
2017-Sep-12 07:00N 42°18' E 032°32'5 9.5
2017-Sep-12 06:30N 42°18' E 032°39'5 9.6
2017-Sep-12 06:00N 42°17' E 032°45'5 9.6
2017-Sep-12 05:30N 42°17' E 032°52'5 9.5
2017-Sep-12 05:00N 42°17' E 032°58'5 9.5
2017-Sep-12 04:30N 42°17' E 033°05'5 9.5
2017-Sep-12 04:00N 42°16' E 033°11'5 9.4
2017-Sep-12 03:30N 42°16' E 033°17'5 9.6
2017-Sep-12 03:00N 42°16' E 033°24'5 9.9
2017-Sep-12 02:30N 42°15' E 033°30'510.0
2017-Sep-12 02:00N 42°15' E 033°37'510.1
2017-Sep-12 01:30N 42°15' E 033°44'510.0
2017-Sep-12 01:00N 42°14' E 033°51'5 9.9
2017-Sep-12 00:30N 42°14' E 033°57'510.0
2017-Sep-12 00:00N 42°14' E 034°04'5 9.9
2017-Sep-11 23:29N 42°13' E 034°11'510.1
2017-Sep-11 23:00N 42°13' E 034°18'510.1
2017-Sep-11 22:30N 42°13' E 034°24'510.4
2017-Sep-11 22:00N 42°13' E 034°32'510.5
2017-Sep-11 21:30N 42°12' E 034°39'510.4
2017-Sep-11 21:00N 42°12' E 034°46'510.4
2017-Sep-11 20:30N 42°12' E 034°53'510.4
2017-Sep-11 20:00N 42°11' E 034°59'510.5
2017-Sep-11 19:30N 42°09' E 035°06'510.6
2017-Sep-11 19:00N 42°08' E 035°13'510.6
2017-Sep-11 18:30N 42°06' E 035°20'510.8
2017-Sep-11 18:00N 42°04' E 035°26'510.6
2017-Sep-11 17:30N 42°01' E 035°33'510.3
2017-Sep-11 17:00N 41°59' E 035°39'510.2
2017-Sep-11 16:30N 41°57' E 035°45'510.4
2017-Sep-11 16:00N 41°54' E 035°51'510.5
2017-Sep-11 15:30N 41°52' E 035°58'510.4
2017-Sep-11 15:00N 41°50' E 036°04'510.7
2017-Sep-11 14:30N 41°47' E 036°10'611.5
2017-Sep-11 14:00N 41°42' E 036°13'611.0
2017-Sep-11 13:30N 41°37' E 036°15'510.7
2017-Sep-11 13:00N 41°31' E 036°17'510.6
2017-Sep-11 12:30N 41°26' E 036°19'510.0
2017-Sep-11 11:59N 41°21' E 036°21'3 6.9
2017-Sep-11 11:30N 41°18' E 036°23'1 0.4
2017-Sep-11 08:35N 41°18' E 036°24'0 0.1
2017-Sep-11 08:23N 41°18' E 036°24'  
Track history (hours):
 
Tides and Currents Weather Stations Pressure Air Temp Water Temp Dewpoint Dewpoint Depression Visibility Wind Speed Wind Dir Waves Ship Positions

Kemal Ka

Last reported at 2017-Sep-20 22:05 UTC. Time now 2017-Sep-23 04:09 UTC.
Position N 42°24' E 030°22'.

Length 138 m; draft 5 m.

Type: Tanker. MMSI: 271002668.

Date/timePositionNaut miles runAvg speedWind from/ knotsBaromVisibWave heightAir tempDewpointWater temp
2017-Sep-20 22:05N 42°24' E 030°22'110.1
2017-Sep-20 22:00N 42°24' E 030°23'510.3
2017-Sep-20 21:30N 42°24' E 030°30'510.6
2017-Sep-20 21:00N 42°23' E 030°37'510.5
2017-Sep-20 20:30N 42°23' E 030°44'510.5
2017-Sep-20 20:00N 42°23' E 030°52'510.5
2017-Sep-20 19:30N 42°22' E 030°59'510.7
2017-Sep-20 19:00N 42°22' E 031°06'511.0
2017-Sep-20 18:30N 42°22' E 031°13'610.9
2017-Sep-20 18:00N 42°21' E 031°21'611.2
2017-Sep-20 17:30N 42°21' E 031°28'611.1
2017-Sep-20 16:59N 42°21' E 031°36'611.2
2017-Sep-20 16:28N 42°20' E 031°44'711.3
2017-Sep-20 15:53N 42°20' E 031°53'411.3
2017-Sep-20 15:30N 42°20' E 031°59'611.1
2017-Sep-20 15:00N 42°19' E 032°06'1110.9
2017-Sep-20 14:00N 42°19' E 032°21'510.8
2017-Sep-20 13:30N 42°18' E 032°28'510.9
2017-Sep-20 13:00N 42°18' E 032°36'510.8
2017-Sep-20 12:30N 42°18' E 032°43'510.7
2017-Sep-20 12:00N 42°17' E 032°50'510.6
2017-Sep-20 11:30N 42°17' E 032°57'510.5
2017-Sep-20 11:00N 42°17' E 033°04'510.2
2017-Sep-20 10:30N 42°16' E 033°11'6010.1
2017-Sep-20 04:34N 42°13' E 034°32'110.3
2017-Sep-20 04:30N 42°12' E 034°33'4910.1
2017-Sep-19 23:38N 41°60' E 035°37'310.1
2017-Sep-19 23:20N 41°58' E 035°40'410.1
2017-Sep-19 22:59N 41°57' E 035°45'49 6.3
2017-Sep-19 15:08N 41°18' E 036°24'1 0.0
2017-Sep-18 00:46N 41°19' E 036°25'3 5.2
2017-Sep-18 00:16N 41°21' E 036°24'13 8.9
2017-Sep-17 22:52N 41°33' E 036°18'4 8.6
2017-Sep-17 22:24N 41°37' E 036°16'4 8.5
2017-Sep-17 21:59N 41°40' E 036°15'15 7.8
2017-Sep-17 20:01N 41°51' E 036°00'0 8.4
2017-Sep-17 20:00N 41°52' E 036°00'4 8.7
2017-Sep-17 19:29N 41°53' E 035°55'5 8.6
2017-Sep-17 18:55N 41°55' E 035°49'11 9.2
2017-Sep-17 17:45N 41°59' E 035°35'109 8.9
2017-Sep-17 05:30N 42°05' E 033°09'4 8.9
2017-Sep-17 05:00N 42°05' E 033°03'5 9.2
2017-Sep-17 04:30N 42°05' E 032°57'5 9.2
2017-Sep-17 04:00N 42°06' E 032°51'5 9.2
2017-Sep-17 03:26N 42°06' E 032°44'4 9.3
2017-Sep-17 03:00N 42°07' E 032°38'5 9.3
2017-Sep-17 02:30N 42°07' E 032°32'13 9.1
2017-Sep-17 01:05N 42°08' E 032°15'1 8.9
2017-Sep-17 01:00N 42°08' E 032°14'4 8.7
2017-Sep-17 00:30N 42°08' E 032°08'4 8.8
2017-Sep-17 00:00N 42°09' E 032°02'4 8.7
2017-Sep-16 23:30N 42°09' E 031°56'4 8.5
2017-Sep-16 23:00N 42°09' E 031°50'4 8.4
2017-Sep-16 22:30N 42°10' E 031°45'4 8.5
2017-Sep-16 22:00N 42°10' E 031°39'4 8.7
2017-Sep-16 21:30N 42°11' E 031°33'5 8.8
2017-Sep-16 21:00N 42°12' E 031°27'5 8.6
2017-Sep-16 20:25N 42°13' E 031°21'25 8.5
2017-Sep-16 17:31N 42°16' E 030°48'0 8.2
2017-Sep-16 17:30N 42°16' E 030°47'5 8.2
2017-Sep-16 16:54N 42°17' E 030°41'3 8.2
2017-Sep-16 16:30N 42°17' E 030°36'4 8.2
2017-Sep-16 16:00N 42°18' E 030°31'4 8.2
2017-Sep-16 15:30N 42°18' E 030°25'4 8.2
2017-Sep-16 15:00N 42°18' E 030°20'4 8.1
2017-Sep-16 14:30N 42°19' E 030°14'4 8.2
2017-Sep-16 14:00N 42°19' E 030°09'8 8.3
2017-Sep-16 13:02N 42°20' E 029°58'0 8.4
2017-Sep-16 13:00N 42°20' E 029°58'9 8.5
2017-Sep-16 11:57N 42°21' E 029°46'4 8.6
2017-Sep-16 11:29N 42°21' E 029°40'5 8.7
2017-Sep-16 10:57N 42°21' E 029°34'4 8.6
2017-Sep-16 10:30N 42°22' E 029°29'4 8.6
2017-Sep-16 10:00N 42°22' E 029°23'4 8.6
2017-Sep-16 09:30N 42°22' E 029°17'4 8.8
2017-Sep-16 09:00N 42°22' E 029°11'25 8.9
2017-Sep-16 06:10N 42°24' E 028°37'2 8.8
2017-Sep-16 05:58N 42°24' E 028°35'4 9.0
2017-Sep-16 05:30N 42°25' E 028°29'4 8.9
2017-Sep-16 05:00N 42°26' E 028°23'6 9.0
2017-Sep-16 04:24N 42°26' E 028°16'7 9.1
2017-Sep-16 03:36N 42°27' E 028°06'5 9.1
2017-Sep-16 03:05N 42°27' E 028°00'1 9.2
2017-Sep-16 02:59N 42°28' E 027°59'5 9.1
2017-Sep-16 02:28N 42°28' E 027°52'5 8.9
2017-Sep-16 01:56N 42°28' E 027°46'  
2017-Sep-12 10:42N 42°20' E 031°44'14 9.8
2017-Sep-12 09:18N 42°19' E 032°03'3 9.8
2017-Sep-12 09:00N 42°19' E 032°07'5 9.6
2017-Sep-12 08:30N 42°19' E 032°13'5 9.5
2017-Sep-12 08:00N 42°19' E 032°20'5 9.6
2017-Sep-12 07:30N 42°18' E 032°26'5 9.5
2017-Sep-12 07:00N 42°18' E 032°32'5 9.5
2017-Sep-12 06:30N 42°18' E 032°39'5 9.6
2017-Sep-12 06:00N 42°17' E 032°45'5 9.6
2017-Sep-12 05:30N 42°17' E 032°52'5 9.5
2017-Sep-12 05:00N 42°17' E 032°58'5 9.5
2017-Sep-12 04:30N 42°17' E 033°05'5 9.5
2017-Sep-12 04:00N 42°16' E 033°11'5 9.4
2017-Sep-12 03:30N 42°16' E 033°17'5 9.6
2017-Sep-12 03:00N 42°16' E 033°24'5 9.9
2017-Sep-12 02:30N 42°15' E 033°30'510.0
2017-Sep-12 02:00N 42°15' E 033°37'510.1
2017-Sep-12 01:30N 42°15' E 033°44'510.0
2017-Sep-12 01:00N 42°14' E 033°51'5 9.9
2017-Sep-12 00:30N 42°14' E 033°57'510.0
2017-Sep-12 00:00N 42°14' E 034°04'5 9.9
2017-Sep-11 23:29N 42°13' E 034°11'510.1
2017-Sep-11 23:00N 42°13' E 034°18'510.1
2017-Sep-11 22:30N 42°13' E 034°24'510.4
2017-Sep-11 22:00N 42°13' E 034°32'510.5
2017-Sep-11 21:30N 42°12' E 034°39'510.4
2017-Sep-11 21:00N 42°12' E 034°46'510.4
2017-Sep-11 20:30N 42°12' E 034°53'510.4
2017-Sep-11 20:00N 42°11' E 034°59'510.5
2017-Sep-11 19:30N 42°09' E 035°06'510.6
2017-Sep-11 19:00N 42°08' E 035°13'510.6
2017-Sep-11 18:30N 42°06' E 035°20'510.8
2017-Sep-11 18:00N 42°04' E 035°26'510.6
2017-Sep-11 17:30N 42°01' E 035°33'510.3
2017-Sep-11 17:00N 41°59' E 035°39'510.2
2017-Sep-11 16:30N 41°57' E 035°45'510.4
2017-Sep-11 16:00N 41°54' E 035°51'510.5
2017-Sep-11 15:30N 41°52' E 035°58'510.4
2017-Sep-11 15:00N 41°50' E 036°04'510.7
2017-Sep-11 14:30N 41°47' E 036°10'611.5
2017-Sep-11 14:00N 41°42' E 036°13'611.0
2017-Sep-11 13:30N 41°37' E 036°15'510.7
2017-Sep-11 13:00N 41°31' E 036°17'510.6
2017-Sep-11 12:30N 41°26' E 036°19'510.0
2017-Sep-11 11:59N 41°21' E 036°21'3 6.9
2017-Sep-11 11:30N 41°18' E 036°23'1 0.4
2017-Sep-11 08:35N 41°18' E 036°24'0 0.1
2017-Sep-11 08:23N 41°18' E 036°24'  

Dump ship's entire track history